createdAt,value
2023-04-19T00:01:43.620Z,57.10
2023-04-19T00:04:10.850Z,56.60
2023-04-19T00:06:37.904Z,57.00
2023-04-19T00:09:05.365Z,57.50
2023-04-19T00:11:33.186Z,57.50
2023-04-19T00:14:00.504Z,57.20
2023-04-19T00:16:27.536Z,56.50
2023-04-19T00:18:54.497Z,56.90
2023-04-19T00:21:21.530Z,57.00
2023-04-19T00:23:48.445Z,57.10
2023-04-19T00:26:18.096Z,56.90
2023-04-19T00:28:49.737Z,56.80
2023-04-19T00:31:16.869Z,56.10
2023-04-19T00:33:43.937Z,57.20
2023-04-19T00:36:10.984Z,57.10
2023-04-19T00:38:39.175Z,57.70
2023-04-19T00:41:06.202Z,56.90
2023-04-19T00:43:33.203Z,56.60
2023-04-19T00:46:01.108Z,56.50
2023-04-19T00:48:28.798Z,57.00
2023-04-19T00:50:56.030Z,56.90
2023-04-19T00:53:22.949Z,56.80
2023-04-19T00:55:53.189Z,56.70
2023-04-19T00:58:20.201Z,57.20
2023-04-19T01:00:48.168Z,56.80
2023-04-19T01:03:17.089Z,57.00
2023-04-19T01:05:44.145Z,57.20
2023-04-19T01:08:13.101Z,56.70
2023-04-19T01:10:40.187Z,56.60
2023-04-19T01:13:08.871Z,57.20
2023-04-19T01:15:38.125Z,57.10
2023-04-19T01:18:05.479Z,56.60
2023-04-19T01:20:32.523Z,57.20
2023-04-19T01:22:59.524Z,57.20
2023-04-19T01:25:27.771Z,57.10
2023-04-19T01:27:54.710Z,57.90
2023-04-19T01:30:24.086Z,57.40
2023-04-19T01:32:51.038Z,57.20
2023-04-19T01:35:18.206Z,57.00
2023-04-19T01:37:45.170Z,57.40
2023-04-19T01:40:12.613Z,57.50
2023-04-19T01:42:39.589Z,57.30
2023-04-19T01:45:07.045Z,57.60
2023-04-19T01:47:33.990Z,57.50
2023-04-19T01:50:02.619Z,57.60
2023-04-19T01:52:29.724Z,57.80
2023-04-19T01:54:56.641Z,57.80
2023-04-19T01:57:23.585Z,57.80
2023-04-19T01:59:51.500Z,57.80
2023-04-19T02:02:18.603Z,57.60
2023-04-19T02:04:45.781Z,57.80
2023-04-19T02:07:12.777Z,57.70
2023-04-19T02:09:39.788Z,57.60
2023-04-19T02:12:07.154Z,58.10
2023-04-19T02:14:35.181Z,58.20
2023-04-19T02:17:02.233Z,57.90
2023-04-19T02:19:29.190Z,57.70
2023-04-19T02:21:57.825Z,58.00
2023-04-19T02:24:25.400Z,57.20
2023-04-19T02:26:52.476Z,57.80
2023-04-19T02:29:19.481Z,57.80
2023-04-19T02:31:46.661Z,58.20
2023-04-19T02:34:14.020Z,58.00
2023-04-19T02:36:41.218Z,58.10
2023-04-19T02:39:08.502Z,58.00
2023-04-19T02:41:38.217Z,57.70
2023-04-19T02:44:05.542Z,57.60
2023-04-19T02:46:32.589Z,57.50
2023-04-19T02:49:01.250Z,57.40
2023-04-19T02:51:28.341Z,57.50
2023-04-19T02:53:55.557Z,57.90
2023-04-19T02:56:22.507Z,57.80
2023-04-19T02:58:49.580Z,57.60
2023-04-19T03:01:16.665Z,57.50
2023-04-19T03:03:43.688Z,57.40
2023-04-19T03:06:11.157Z,57.70
2023-04-19T03:08:47.582Z,57.60
2023-04-19T03:11:17.276Z,57.40
2023-04-19T03:13:44.400Z,57.80
2023-04-19T03:16:13.188Z,57.20
2023-04-19T03:18:41.381Z,57.60
2023-04-19T03:21:09.639Z,56.00
2023-04-19T03:23:46.473Z,57.30
2023-04-19T03:26:14.274Z,57.60
2023-04-19T03:28:45.504Z,57.70
2023-04-19T03:31:27.706Z,57.70
2023-04-19T03:33:54.858Z,57.90
2023-04-19T03:36:27.246Z,57.80
2023-04-19T03:38:54.274Z,57.70
2023-04-19T03:41:26.871Z,57.90
2023-04-19T03:44:10.375Z,57.50
2023-04-19T03:46:38.584Z,57.90
2023-04-19T03:49:06.151Z,57.90
2023-04-19T03:51:33.459Z,57.50
2023-04-19T03:54:00.936Z,58.00
2023-04-19T03:56:29.316Z,58.80
2023-04-19T03:58:56.525Z,57.50
2023-04-19T04:01:24.400Z,57.70
2023-04-19T04:03:53.290Z,57.70
2023-04-19T04:06:20.692Z,58.10
2023-04-19T04:08:47.924Z,57.90
2023-04-19T04:11:15.166Z,57.70
2023-04-19T04:13:43.323Z,57.70
2023-04-19T04:16:20.775Z,57.90
2023-04-19T04:18:49.056Z,57.60
2023-04-19T04:21:16.287Z,57.70
2023-04-19T04:23:47.234Z,57.80
2023-04-19T04:26:22.018Z,58.00
2023-04-19T04:29:03.969Z,57.80
2023-04-19T04:31:32.037Z,57.70
2023-04-19T04:33:59.312Z,58.50
2023-04-19T04:36:26.344Z,58.30
2023-04-19T04:38:54.627Z,58.10
2023-04-19T04:41:22.887Z,58.30
2023-04-19T04:44:04.602Z,58.30
2023-04-19T04:46:38.268Z,58.20
2023-04-19T04:49:06.565Z,58.20
2023-04-19T04:51:34.348Z,58.60
2023-04-19T04:54:01.425Z,58.30
2023-04-19T04:56:29.065Z,58.50
2023-04-19T04:58:57.135Z,58.20
2023-04-19T05:01:30.667Z,57.50
2023-04-19T05:04:00.370Z,58.50
2023-04-19T05:06:27.436Z,58.50
2023-04-19T05:08:54.589Z,58.90
2023-04-19T05:11:30.391Z,58.70
2023-04-19T05:13:57.649Z,58.40
2023-04-19T05:16:25.792Z,59.10
2023-04-19T05:18:53.322Z,59.40
2023-04-19T05:21:21.850Z,59.60
2023-04-19T05:23:48.904Z,58.80
2023-04-19T05:26:16.183Z,58.10
2023-04-19T05:28:45.476Z,59.10
2023-04-19T05:31:21.173Z,60.10
2023-04-19T05:34:11.472Z,61.90
2023-04-19T05:36:38.569Z,62.20
2023-04-19T05:39:05.879Z,62.80
2023-04-19T05:41:33.033Z,63.00
2023-04-19T05:44:00.039Z,63.50
2023-04-19T05:46:27.243Z,63.80
2023-04-19T05:48:56.125Z,63.70
2023-04-19T05:51:41.449Z,64.60
2023-04-19T05:54:14.696Z,64.10
2023-04-19T05:56:45.470Z,64.10
2023-04-19T05:59:14.144Z,64.10
2023-04-19T06:01:41.430Z,65.20
2023-04-19T06:04:08.716Z,64.30
2023-04-19T06:06:38.160Z,63.70
2023-04-19T06:09:07.188Z,62.10
2023-04-19T06:11:42.869Z,62.60
2023-04-19T06:14:14.836Z,62.20
2023-04-19T06:16:42.658Z,61.10
2023-04-19T06:19:09.714Z,61.20
2023-04-19T06:21:36.897Z,61.00
2023-04-19T06:24:04.527Z,60.10
2023-04-19T06:26:31.444Z,60.90
2023-04-19T06:28:58.499Z,60.60
2023-04-19T06:31:25.605Z,60.40
2023-04-19T06:33:52.608Z,59.80
2023-04-19T06:36:20.064Z,60.60
2023-04-19T06:38:47.033Z,61.20
2023-04-19T06:41:14.043Z,60.80
2023-04-19T06:43:42.784Z,61.30
2023-04-19T06:46:10.063Z,61.10
2023-04-19T06:48:37.257Z,60.40
2023-04-19T06:51:04.392Z,60.00
2023-04-19T06:53:31.392Z,60.00
2023-04-19T06:56:04.278Z,60.80
2023-04-19T06:58:35.500Z,60.30
2023-04-19T07:01:04.645Z,60.90
2023-04-19T07:03:32.456Z,60.80
2023-04-19T07:05:59.590Z,60.40
2023-04-19T07:08:34.901Z,60.00
2023-04-19T07:11:09.716Z,60.30
2023-04-19T07:13:37.102Z,60.00
2023-04-19T07:16:08.070Z,60.10
2023-04-19T07:18:35.171Z,60.30
2023-04-19T07:21:02.336Z,60.00
2023-04-19T07:23:30.905Z,60.10
2023-04-19T07:25:57.947Z,59.10
2023-04-19T07:28:24.977Z,59.80
2023-04-19T07:30:51.895Z,59.10
2023-04-19T07:33:18.928Z,59.20
2023-04-19T07:35:46.092Z,59.70
2023-04-19T07:38:13.118Z,59.20
2023-04-19T07:40:40.154Z,59.10
2023-04-19T07:43:07.078Z,59.20
2023-04-19T07:45:34.021Z,59.20
2023-04-19T07:48:01.107Z,59.30
2023-04-19T07:50:28.156Z,58.50
2023-04-19T07:52:56.750Z,58.60
2023-04-19T07:55:23.814Z,58.20
2023-04-19T07:57:50.777Z,58.10
2023-04-19T08:00:18.968Z,58.30
2023-04-19T08:02:47.288Z,57.90
2023-04-19T08:05:17.634Z,57.70
2023-04-19T08:07:45.834Z,57.50
2023-04-19T08:10:14.986Z,57.10
2023-04-19T08:12:57.047Z,56.70
2023-04-19T08:16:14.863Z,57.00
2023-04-19T08:18:16.198Z,56.60
2023-04-19T08:20:43.197Z,56.30
2023-04-19T08:23:22.374Z,56.40
2023-04-19T08:25:51.522Z,56.00
2023-04-19T08:28:19.396Z,55.90
2023-04-19T08:30:46.487Z,55.50
2023-04-19T08:33:13.568Z,55.30
2023-04-19T08:35:41.558Z,55.40
2023-04-19T08:38:09.105Z,55.50
2023-04-19T08:40:39.262Z,55.10
2023-04-19T08:43:07.251Z,55.30
2023-04-19T08:45:35.773Z,54.90
2023-04-19T08:48:04.200Z,54.50
2023-04-19T08:50:38.908Z,54.90
2023-04-19T08:53:24.730Z,54.40
2023-04-19T08:56:10.664Z,54.40
2023-04-19T09:01:33.086Z,54.20
2023-04-19T09:04:34.054Z,54.50
2023-04-19T09:06:55.911Z,54.40
2023-04-19T09:11:55.309Z,53.50
2023-04-19T09:14:23.471Z,53.30
2023-04-19T09:16:52.270Z,52.60
2023-04-19T09:19:24.841Z,52.50
2023-04-19T09:21:54.434Z,52.70
2023-04-19T09:25:14.500Z,52.40
2023-04-19T09:27:34.253Z,52.00
2023-04-19T09:30:03.354Z,52.00
2023-04-19T09:32:49.054Z,52.30
2023-04-19T09:35:16.602Z,52.60
2023-04-19T09:38:05.396Z,52.10
2023-04-19T09:40:34.180Z,52.30
2023-04-19T09:45:46.479Z,51.60
2023-04-19T09:48:14.084Z,51.40
2023-04-19T09:51:03.769Z,51.10
2023-04-19T09:53:35.039Z,51.40
2023-04-19T09:56:04.186Z,51.20
2023-04-19T10:01:13.961Z,51.20
2023-04-19T10:03:45.575Z,51.70
2023-04-19T10:06:39.968Z,51.30
2023-04-19T10:09:05.262Z,51.40
2023-04-19T10:11:40.272Z,51.60
2023-04-19T10:14:11.742Z,51.60
2023-04-19T10:16:39.491Z,51.30
2023-04-19T10:19:10.958Z,51.70
2023-04-19T10:21:39.693Z,51.40
2023-04-19T10:24:07.354Z,50.90
2023-04-19T10:27:04.980Z,51.40
2023-04-19T10:30:00.872Z,51.00
2023-04-19T10:32:39.170Z,50.80
2023-04-19T10:35:20.561Z,51.00
2023-04-19T10:38:09.008Z,50.80
2023-04-19T10:40:56.645Z,50.50
2023-04-19T10:43:25.370Z,50.70
2023-04-19T10:45:52.882Z,50.70
2023-04-19T10:48:33.262Z,50.60
2023-04-19T10:51:20.461Z,50.60
2023-04-19T10:54:01.860Z,50.80
2023-04-19T10:56:34.827Z,50.10
2023-04-19T10:59:07.901Z,50.00
2023-04-19T11:01:45.682Z,50.60
2023-04-19T11:04:16.654Z,50.20
2023-04-19T11:06:53.191Z,49.40
2023-04-19T11:09:28.898Z,49.40
2023-04-19T11:12:10.725Z,49.30
2023-04-19T11:14:43.299Z,49.70
2023-04-19T11:17:28.041Z,49.60
2023-04-19T11:19:59.206Z,49.50
2023-04-19T11:22:46.783Z,49.70
2023-04-19T11:25:20.078Z,49.40
2023-04-19T11:27:49.526Z,49.40
2023-04-19T11:30:22.774Z,49.40
2023-04-19T11:32:54.818Z,50.40
2023-04-19T11:35:24.087Z,50.00
2023-04-19T11:37:51.426Z,49.80
2023-04-19T11:40:20.515Z,48.80
2023-04-19T11:42:53.420Z,49.80
2023-04-19T11:45:38.538Z,49.30
2023-04-19T11:48:08.371Z,49.00
2023-04-19T11:50:45.842Z,48.70
2023-04-19T11:53:21.757Z,48.80
2023-04-19T11:55:53.502Z,49.10
2023-04-19T11:58:29.516Z,49.60
2023-04-19T12:01:04.857Z,48.90
2023-04-19T12:03:32.524Z,49.10
2023-04-19T12:06:04.396Z,49.00
2023-04-19T12:08:36.584Z,48.50
2023-04-19T12:11:05.063Z,48.50
2023-04-19T12:13:33.142Z,48.80
2023-04-19T12:16:00.426Z,47.90
2023-04-19T12:18:27.598Z,47.50
2023-04-19T12:20:55.008Z,47.80
2023-04-19T12:23:22.143Z,46.80
2023-04-19T12:25:50.061Z,46.70
2023-04-19T12:28:17.225Z,47.40
2023-04-19T12:30:44.612Z,47.50
2023-04-19T12:33:11.740Z,47.70
2023-04-19T12:35:39.658Z,48.20
2023-04-19T12:38:06.700Z,45.30
2023-04-19T12:40:35.604Z,46.00
2023-04-19T12:43:02.505Z,45.00
2023-04-19T12:45:29.643Z,46.40
2023-04-19T12:47:57.083Z,47.10
2023-04-19T12:50:24.277Z,46.00
2023-04-19T12:52:53.685Z,44.50
2023-04-19T12:55:20.846Z,46.70
2023-04-19T12:57:47.886Z,46.90
2023-04-19T13:00:15.986Z,44.30
2023-04-19T13:02:43.365Z,46.20
2023-04-19T13:05:13.008Z,46.10
2023-04-19T13:07:40.425Z,44.10
2023-04-19T13:10:08.002Z,44.60
2023-04-19T13:12:35.800Z,44.70
2023-04-19T13:15:04.510Z,44.90
2023-04-19T13:17:32.169Z,45.50
2023-04-19T13:19:59.202Z,43.10
2023-04-19T13:22:26.840Z,44.90
2023-04-19T13:24:53.826Z,43.10
2023-04-19T13:27:21.029Z,42.00
2023-04-19T13:29:48.108Z,42.30
2023-04-19T13:32:15.125Z,41.50
2023-04-19T13:34:42.067Z,42.90
2023-04-19T13:37:09.182Z,40.90
2023-04-19T13:39:37.301Z,40.70
2023-04-19T13:42:04.650Z,40.70
2023-04-19T13:44:31.905Z,43.10
2023-04-19T13:46:59.192Z,42.30
2023-04-19T13:49:26.526Z,40.60
2023-04-19T13:51:53.550Z,42.00
2023-04-19T13:54:21.316Z,40.50
2023-04-19T13:56:51.359Z,38.40
2023-04-19T13:59:19.263Z,42.10
2023-04-19T14:01:46.237Z,38.90
2023-04-19T14:04:13.524Z,38.80
2023-04-19T14:06:41.575Z,39.10
2023-04-19T14:09:08.776Z,39.00
2023-04-19T14:11:37.792Z,39.10
2023-04-19T14:14:04.738Z,39.70
2023-04-19T14:16:31.665Z,38.10
2023-04-19T14:18:58.856Z,37.10
2023-04-19T14:21:28.255Z,39.00
2023-04-19T14:23:55.901Z,33.60
2023-04-19T14:26:24.290Z,37.20
2023-04-19T14:28:52.404Z,38.90
2023-04-19T14:31:19.503Z,37.90
2023-04-19T14:33:46.504Z,35.00
2023-04-19T14:36:13.486Z,36.30
2023-04-19T14:38:40.619Z,34.40
2023-04-19T14:41:07.806Z,34.20
2023-04-19T14:43:34.980Z,35.40
2023-04-19T14:46:02.015Z,36.70
2023-04-19T14:48:29.333Z,32.80
2023-04-19T14:50:56.286Z,40.50
2023-04-19T14:53:23.418Z,35.80
2023-04-19T14:55:50.409Z,35.90
2023-04-19T14:58:17.958Z,35.10
2023-04-19T15:00:44.956Z,31.50
2023-04-19T15:03:12.499Z,32.70
2023-04-19T15:05:39.605Z,35.70
2023-04-19T15:08:09.104Z,33.30
2023-04-19T15:10:41.880Z,38.70
2023-04-19T15:13:09.621Z,34.90
2023-04-19T15:15:36.734Z,36.50
2023-04-19T15:18:03.831Z,36.70
2023-04-19T15:20:31.533Z,33.80
2023-04-19T15:22:58.607Z,35.70
2023-04-19T15:25:26.162Z,34.80
2023-04-19T15:27:53.256Z,38.20
2023-04-19T15:30:20.782Z,35.00
2023-04-19T15:32:47.757Z,36.60
2023-04-19T15:35:14.915Z,38.70
2023-04-19T15:37:43.804Z,38.00
2023-04-19T15:40:12.664Z,34.60
2023-04-19T15:42:40.205Z,38.00
2023-04-19T15:45:07.912Z,38.00
2023-04-19T15:47:35.482Z,32.00
2023-04-19T15:50:04.161Z,33.20
2023-04-19T15:52:31.277Z,33.20
2023-04-19T15:54:58.265Z,33.50
2023-04-19T15:57:25.684Z,40.70
2023-04-19T15:59:52.954Z,37.30
2023-04-19T16:02:20.129Z,34.50
2023-04-19T16:04:48.526Z,34.50
2023-04-19T16:07:16.610Z,33.60
2023-04-19T16:09:43.675Z,38.30
2023-04-19T16:12:10.592Z,32.30
2023-04-19T16:14:37.967Z,36.40
2023-04-19T16:17:08.458Z,31.80
2023-04-19T16:19:38.110Z,38.90
2023-04-19T16:22:05.536Z,34.20
2023-04-19T16:24:32.609Z,36.30
2023-04-19T16:26:59.581Z,32.40
2023-04-19T16:29:27.290Z,31.50
2023-04-19T16:31:54.283Z,35.70
2023-04-19T16:34:21.295Z,39.10
2023-04-19T16:36:48.323Z,32.80
2023-04-19T16:39:15.963Z,36.10
2023-04-19T16:41:43.929Z,32.70
2023-04-19T16:44:11.922Z,36.10
2023-04-19T16:46:39.159Z,32.30
2023-04-19T16:49:06.129Z,33.60
2023-04-19T16:51:33.171Z,36.30
2023-04-19T16:54:00.260Z,38.20
2023-04-19T16:56:27.186Z,33.60
2023-04-19T16:58:56.485Z,34.40
2023-04-19T17:01:23.910Z,34.10
2023-04-19T17:03:51.310Z,36.10
2023-04-19T17:06:18.465Z,34.80
2023-04-19T17:08:45.431Z,34.90
2023-04-19T17:11:12.540Z,31.60
2023-04-19T17:13:40.078Z,32.10
2023-04-19T17:16:07.592Z,32.40
2023-04-19T17:18:34.782Z,34.80
2023-04-19T17:21:02.494Z,33.40
2023-04-19T17:23:29.496Z,31.00
2023-04-19T17:25:56.570Z,32.50
2023-04-19T17:28:23.546Z,31.90
2023-04-19T17:30:50.616Z,29.90
2023-04-19T17:33:17.630Z,30.10
2023-04-19T17:35:44.862Z,31.30
2023-04-19T17:38:12.601Z,30.70
2023-04-19T17:40:39.613Z,30.80
2023-04-19T17:43:06.721Z,31.70
2023-04-19T17:45:34.313Z,33.00
2023-04-19T17:48:02.245Z,31.00
2023-04-19T17:50:30.081Z,32.00
2023-04-19T17:52:57.814Z,33.10
2023-04-19T17:55:25.669Z,34.40
2023-04-19T17:57:52.666Z,31.90
2023-04-19T18:00:19.941Z,33.10
2023-04-19T18:02:48.782Z,33.20
2023-04-19T18:05:15.948Z,33.30
2023-04-19T18:07:42.932Z,34.70
2023-04-19T18:10:10.569Z,33.10
2023-04-19T18:12:37.749Z,33.70
2023-04-19T18:15:06.411Z,33.60
2023-04-19T18:17:33.522Z,34.00
2023-04-19T18:20:02.034Z,35.20
2023-04-19T18:22:29.045Z,35.20
2023-04-19T18:24:56.931Z,35.80
2023-04-19T18:27:23.947Z,36.10
2023-04-19T18:29:52.338Z,36.30
2023-04-19T18:32:19.627Z,35.70
2023-04-19T18:34:47.425Z,35.10
2023-04-19T18:37:17.706Z,35.00
2023-04-19T18:39:45.460Z,35.50
2023-04-19T18:42:12.666Z,35.40
2023-04-19T18:44:52.862Z,35.80
2023-04-19T18:47:22.060Z,35.30
2023-04-19T18:50:02.772Z,35.50
2023-04-19T18:52:33.055Z,35.20
2023-04-19T18:55:06.382Z,35.40
2023-04-19T18:57:35.468Z,35.10
2023-04-19T19:00:06.021Z,35.70
2023-04-19T19:02:34.446Z,35.50
2023-04-19T19:05:02.512Z,36.10
2023-04-19T19:10:02.513Z,36.80
2023-04-19T19:12:36.615Z,37.60
2023-04-19T19:15:04.460Z,37.00
2023-04-19T19:17:32.100Z,36.50
2023-04-19T19:19:59.134Z,36.70
2023-04-19T19:22:29.009Z,37.20
2023-04-19T19:24:56.780Z,39.40
2023-04-19T19:27:24.037Z,36.40
2023-04-19T19:29:51.004Z,38.20
2023-04-19T19:32:22.116Z,37.30
2023-04-19T19:37:20.393Z,37.60
2023-04-19T19:39:47.317Z,38.20
2023-04-19T19:42:31.595Z,38.60
2023-04-19T19:45:02.337Z,37.50
2023-04-19T19:47:31.661Z,40.30
2023-04-19T19:52:32.049Z,37.30
2023-04-19T19:55:00.059Z,36.70
2023-04-19T20:00:12.994Z,39.00
2023-04-19T20:02:55.068Z,37.20
2023-04-19T20:05:23.939Z,38.20
2023-04-19T20:10:21.279Z,37.90
2023-04-19T20:12:48.535Z,38.40
2023-04-19T20:15:15.946Z,37.40
2023-04-19T20:17:43.805Z,37.80
2023-04-19T20:20:11.722Z,38.80
2023-04-19T20:22:38.804Z,38.70
2023-04-19T20:25:06.626Z,37.90
2023-04-19T20:27:34.083Z,39.10
2023-04-19T20:30:01.213Z,39.10
2023-04-19T20:32:28.347Z,38.20
2023-04-19T20:34:55.569Z,39.70
2023-04-19T20:37:22.611Z,40.50
2023-04-19T20:39:49.799Z,40.00
2023-04-19T20:42:16.849Z,35.90
2023-04-19T20:44:44.480Z,36.80
2023-04-19T20:47:13.264Z,38.10
2023-04-19T20:49:41.150Z,38.50
2023-04-19T20:52:08.205Z,36.60
2023-04-19T20:54:36.615Z,39.00
2023-04-19T20:57:04.695Z,38.80
2023-04-19T20:59:31.941Z,39.70
2023-04-19T21:02:00.215Z,36.10
2023-04-19T21:04:27.484Z,36.80
2023-04-19T21:06:54.681Z,36.80
2023-04-19T21:09:21.727Z,37.30
2023-04-19T21:11:48.918Z,36.80
2023-04-19T21:14:15.914Z,36.80
2023-04-19T21:16:42.832Z,36.80
2023-04-19T21:19:09.991Z,38.60
2023-04-19T21:21:37.011Z,37.90
2023-04-19T21:24:04.205Z,39.70
2023-04-19T21:26:31.159Z,37.40
2023-04-19T21:28:58.121Z,37.80
2023-04-19T21:31:25.525Z,37.20
2023-04-19T21:33:52.674Z,41.00
2023-04-19T21:36:19.619Z,38.40
2023-04-19T21:38:47.002Z,37.80
2023-04-19T21:41:13.940Z,38.20
2023-04-19T21:43:43.554Z,38.50
2023-04-19T21:46:10.701Z,38.30
2023-04-19T21:48:37.710Z,41.10
2023-04-19T21:51:04.999Z,37.20
2023-04-19T21:53:32.150Z,38.60
2023-04-19T21:55:59.062Z,37.40
2023-04-19T21:58:26.039Z,40.00
2023-04-19T22:00:53.743Z,38.10
2023-04-19T22:03:21.113Z,38.50
2023-04-19T22:05:48.173Z,38.20
2023-04-19T22:08:18.045Z,38.20
2023-04-19T22:10:46.381Z,38.90
2023-04-19T22:13:14.013Z,36.90
2023-04-19T22:15:41.079Z,38.30
2023-04-19T22:18:08.714Z,37.60
2023-04-19T22:20:35.888Z,39.50
2023-04-19T22:23:02.814Z,39.00
2023-04-19T22:25:30.014Z,39.20
2023-04-19T22:27:56.943Z,39.20
2023-04-19T22:30:24.058Z,38.10
2023-04-19T22:32:51.219Z,39.20
2023-04-19T22:35:19.122Z,39.60
2023-04-19T22:37:47.645Z,41.20
2023-04-19T22:40:14.660Z,39.90
2023-04-19T22:42:41.583Z,41.80
2023-04-19T22:45:09.223Z,39.00
2023-04-19T22:47:37.398Z,39.70
2023-04-19T22:50:05.153Z,38.10
2023-04-19T22:52:32.196Z,40.70
2023-04-19T22:54:59.131Z,41.60
2023-04-19T22:57:26.188Z,40.30
2023-04-19T22:59:53.093Z,39.00
2023-04-19T23:02:20.023Z,42.60
2023-04-19T23:04:49.193Z,40.90
2023-04-19T23:07:16.239Z,41.80
2023-04-19T23:09:43.277Z,42.50
2023-04-19T23:12:10.222Z,42.70
2023-04-19T23:14:38.861Z,40.10
2023-04-19T23:17:06.137Z,43.30
2023-04-19T23:19:33.223Z,44.70
2023-04-19T23:22:00.343Z,42.00
2023-04-19T23:24:27.299Z,44.70
2023-04-19T23:26:54.272Z,42.50
2023-04-19T23:29:21.376Z,41.60
2023-04-19T23:31:48.458Z,41.70
2023-04-19T23:34:16.607Z,43.60
2023-04-19T23:36:43.666Z,43.20
2023-04-19T23:39:10.810Z,41.70
2023-04-19T23:41:37.838Z,42.50
2023-04-19T23:44:04.893Z,41.50
2023-04-19T23:46:31.903Z,43.70
2023-04-19T23:48:58.861Z,43.30
2023-04-19T23:51:25.944Z,41.10
2023-04-19T23:53:52.846Z,45.30
2023-04-19T23:56:19.833Z,41.40
2023-04-19T23:58:46.743Z,43.50
